Main page
METAR-TAF:

METAR-TAF

Airports :

Banjul International Airport

Banjul, Gambia

latitude: 13-21N, longitude: 016-48W, elevation: 36 m

Current weather observation

The report was made 43 minutes ago, at 14:00 UTC
Wind 12 kt from the East/Northeast
Temperature 36°C
Humidity 18%
Pressure 1010 hPa
Visibility 10 km or more
no clouds below 1500 m and no cumulonimbus

METAR: GBYD 231400Z 07012KT CAVOK 36/08 Q1010

Time: 14:43 (14:43 UTC)

Forecast

The report was made 3 hours and 43 minutes ago, at 11:00 UTC
Forecast valid from 23 at 12 UTC to 24 at 18 UTC
Wind 12 kt from the East/Northeast
Visibility 10 km or more
no clouds below 1500 m and no cumulonimbus

TAF: GBYD 231100Z 2312/2418 06012KT CAVOK

Weather observations and forecasts of more than 4000 airports (METAR and TAF reports).

The available stations are represented by yellow and red dots on the map.

Hover mouse over dot to see the name of the station.

Then click to see weather observations and forecasts.

To change the map : click on the green buttons with a black cross to zoom in, on the green button with a dash to zoom out, or on the green arrows for adjacent maps.


METAR-TAF: